Time;durP1;ratioP1;P1;durP2;ratioP2;P2;SDS_P1;SDS_P2;PMS_P1;PMS_P2;Temp;Humidity;BMP_temperature;BMP_pressure;BME280_temperature;BME280_humidity;BME280_pressure;Samples;Min_cycle;Max_cycle;Signal;HPM_P1;HPM_P2
2022/10/18 00:02:16;;;;;;;27.42;13.20;;;;;;;;;;4972193;28;20026;-70
2022/10/18 00:04:42;;;;;;;36.85;14.75;;;;;;;;;;4966181;28;20031;-71
2022/10/18 00:07:08;;;;;;;24.52;14.30;;;;;;;;;;4972212;28;20110;-69
2022/10/18 00:09:34;;;;;;;26.70;13.95;;;;;;;;;;4969924;28;20035;-70
2022/10/18 00:12:00;;;;;;;38.00;17.95;;;;;;;;;;4971461;28;20428;-70
2022/10/18 00:14:26;;;;;;;38.75;16.17;;;;;;;;;;4966014;28;20098;-70
2022/10/18 00:16:52;;;;;;;33.33;16.27;;;;;;;;;;4982430;28;142669;-70
2022/10/18 00:19:18;;;;;;;33.83;16.50;;;;;;;;;;4968269;28;20030;-70
2022/10/18 00:21:44;;;;;;;25.83;13.43;;;;;;;;;;4973061;28;20030;-73
2022/10/18 00:24:11;;;;;;;35.28;14.82;;;;;;;;;;4970270;28;20024;-72
2022/10/18 00:26:37;;;;;;;46.25;17.00;;;;;;;;;;4972542;28;20035;-70
2022/10/18 00:29:04;;;;;;;35.00;17.45;;;;;;;;;;4969875;28;20372;-72
2022/10/18 00:31:31;;;;;;;45.08;17.90;;;;;;;;;;4970136;28;20046;-70
2022/10/18 00:33:58;;;;;;;40.53;16.05;;;;;;;;;;4970241;28;21301;-70
2022/10/18 00:36:25;;;;;;;40.03;16.98;;;;;;;;;;4973143;28;20432;-70
2022/10/18 00:38:52;;;;;;;39.28;16.75;;;;;;;;;;4971170;28;20502;-71
2022/10/18 00:41:20;;;;;;;33.97;16.08;;;;;;;;;;4970500;28;20031;-70
2022/10/18 00:44:00;;;;;;;34.03;16.02;;;;;;;;;;4972943;28;20082;-70
2022/10/18 00:46:27;;;;;;;27.20;13.75;;;;;;;;;;4970279;28;20046;-70
2022/10/18 00:48:55;;;;;;;28.05;13.80;;;;;;;;;;4971846;28;20035;-70
2022/10/18 00:51:21;;;;;;;28.83;13.23;;;;;;;;;;4971979;28;20046;-70
2022/10/18 00:53:48;;;;;;;27.73;12.25;;;;;;;;;;4970376;28;20077;-71
2022/10/18 00:56:14;;;;;;;30.20;13.10;;;;;;;;;;4971277;28;20023;-70
2022/10/18 00:58:42;;;;;;;30.63;12.45;;;;;;;;;;4971511;28;20027;-69
2022/10/18 01:01:08;;;;;;;28.88;13.00;;;;;;;;;;4962770;28;20031;-71
2022/10/18 01:03:34;;;;;;;27.52;12.38;;;;;;;;;;4970611;28;20042;-70
2022/10/18 01:06:01;;;;;;;27.30;13.00;;;;;;;;;;4965111;28;20019;-70
2022/10/18 01:08:45;;;;;;;27.83;12.90;;;;;;;;;;4970217;28;20046;-70
2022/10/18 01:11:23;;;;;;;25.98;11.77;;;;;;;;;;4972175;28;20396;-69
2022/10/18 01:13:49;;;;;;;33.25;13.32;;;;;;;;;;4976009;28;20272;-70
2022/10/18 01:16:28;;;;;;;31.60;13.60;;;;;;;;;;4986555;28;20050;-72
2022/10/18 01:19:12;;;;;;;26.00;12.65;;;;;;;;;;4972772;28;20140;-70
2022/10/18 01:21:56;;;;;;;27.60;13.43;;;;;;;;;;4975354;28;20109;-70
2022/10/18 01:24:34;;;;;;;30.27;13.30;;;;;;;;;;4975755;28;20038;-69
2022/10/18 01:27:05;;;;;;;39.60;16.92;;;;;;;;;;4972598;28;20027;-73
2022/10/18 01:29:31;;;;;;;48.13;16.77;;;;;;;;;;4972712;28;20043;-70
2022/10/18 01:32:00;;;;;;;47.85;16.25;;;;;;;;;;4982120;28;20031;-69
2022/10/18 01:34:27;;;;;;;37.85;15.52;;;;;;;;;;4959187;28;20038;-70
2022/10/18 01:36:55;;;;;;;34.70;14.95;;;;;;;;;;4969905;28;20039;-70
2022/10/18 01:39:24;;;;;;;57.50;15.80;;;;;;;;;;4974501;28;20123;-73
2022/10/18 01:41:51;;;;;;;70.85;16.05;;;;;;;;;;4974018;28;20418;-70
2022/10/18 01:44:25;;;;;;;48.80;16.25;;;;;;;;;;4975665;28;20027;-70
2022/10/18 01:46:52;;;;;;;110.45;19.17;;;;;;;;;;4973938;28;20422;-71
2022/10/18 01:49:18;;;;;;;153.82;22.90;;;;;;;;;;4974455;28;20041;-70
2022/10/18 01:51:44;;;;;;;61.95;20.60;;;;;;;;;;4973175;28;20043;-75
2022/10/18 01:54:12;;;;;;;214.63;23.40;;;;;;;;;;4972653;28;20035;-74
2022/10/18 01:56:44;;;;;;;186.98;23.38;;;;;;;;;;4975319;28;20081;-70
2022/10/18 01:59:16;;;;;;;159.17;21.73;;;;;;;;;;4973392;28;20038;-70
2022/10/18 02:01:51;;;;;;;143.52;23.90;;;;;;;;;;4973837;28;20085;-72
2022/10/18 02:04:22;;;;;;;182.38;24.52;;;;;;;;;;4973467;28;20031;-70
2022/10/18 02:06:49;;;;;;;371.75;32.55;;;;;;;;;;4964393;28;20030;-70
2022/10/18 02:09:20;;;;;;;226.07;23.00;;;;;;;;;;4970704;28;20041;-70
2022/10/18 02:11:48;;;;;;;219.30;26.13;;;;;;;;;;4968064;28;20030;-70
2022/10/18 02:14:15;;;;;;;173.95;21.52;;;;;;;;;;4971874;28;20030;-70
2022/10/18 02:16:47;;;;;;;181.70;23.33;;;;;;;;;;4973936;28;20526;-70
2022/10/18 02:19:29;;;;;;;187.82;22.35;;;;;;;;;;4972889;28;20483;-70
2022/10/18 02:21:56;;;;;;;234.20;28.93;;;;;;;;;;4969669;28;20121;-70
2022/10/18 02:24:25;;;;;;;151.65;21.08;;;;;;;;;;4971472;28;20030;-70
2022/10/18 02:26:51;;;;;;;125.65;22.52;;;;;;;;;;4961453;28;20026;-73
2022/10/18 02:29:17;;;;;;;246.90;25.42;;;;;;;;;;4972395;28;20035;-70
2022/10/18 02:31:45;;;;;;;134.63;21.25;;;;;;;;;;4970661;28;20038;-70
2022/10/18 02:34:17;;;;;;;117.45;19.33;;;;;;;;;;4972504;28;20109;-70
2022/10/18 02:36:46;;;;;;;119.67;21.97;;;;;;;;;;4959332;28;20035;-70
2022/10/18 02:39:14;;;;;;;96.15;19.27;;;;;;;;;;4970979;28;20122;-72
2022/10/18 02:41:40;;;;;;;177.75;21.52;;;;;;;;;;4958270;28;20090;-75
2022/10/18 02:44:06;;;;;;;304.33;28.17;;;;;;;;;;4969609;28;20039;-77
2022/10/18 02:46:34;;;;;;;287.25;23.10;;;;;;;;;;4972774;28;20105;-71
2022/10/18 02:49:00;;;;;;;229.90;36.80;;;;;;;;;;4973325;28;20483;-71
2022/10/18 02:51:26;;;;;;;331.02;24.52;;;;;;;;;;4965056;28;20480;-71
2022/10/18 02:53:52;;;;;;;437.60;30.13;;;;;;;;;;4965991;28;20432;-71
2022/10/18 02:56:18;;;;;;;442.48;28.80;;;;;;;;;;4957338;28;20477;-71
2022/10/18 02:58:44;;;;;;;370.27;25.02;;;;;;;;;;4962022;28;20034;-71
2022/10/18 03:01:10;;;;;;;412.65;26.05;;;;;;;;;;4972141;28;20093;-74
2022/10/18 03:03:36;;;;;;;202.43;21.85;;;;;;;;;;4969400;28;20065;-72
2022/10/18 03:06:02;;;;;;;220.65;21.45;;;;;;;;;;4968038;28;20035;-72
2022/10/18 03:08:28;;;;;;;182.82;21.17;;;;;;;;;;4973620;28;20035;-72
2022/10/18 03:10:54;;;;;;;184.43;20.08;;;;;;;;;;4973100;28;20045;-71
2022/10/18 03:13:20;;;;;;;187.57;21.65;;;;;;;;;;4972301;28;20122;-71
2022/10/18 03:15:47;;;;;;;267.92;26.33;;;;;;;;;;4969943;28;20443;-72
2022/10/18 03:18:13;;;;;;;138.15;19.00;;;;;;;;;;4973630;28;20472;-71
2022/10/18 03:20:40;;;;;;;318.55;168.05;;;;;;;;;;4968513;28;20392;-73
2022/10/18 03:23:06;;;;;;;130.75;25.65;;;;;;;;;;4973143;28;20043;-71
2022/10/18 03:25:33;;;;;;;104.53;25.80;;;;;;;;;;4972695;28;20077;-72
2022/10/18 03:27:59;;;;;;;98.55;19.90;;;;;;;;;;4971958;28;20046;-72
2022/10/18 03:30:25;;;;;;;79.30;17.00;;;;;;;;;;4968512;28;20114;-71
2022/10/18 03:32:53;;;;;;;96.95;17.80;;;;;;;;;;4972241;28;20034;-71
2022/10/18 03:35:19;;;;;;;124.22;20.52;;;;;;;;;;4970431;28;20472;-71
2022/10/18 03:37:45;;;;;;;128.13;21.60;;;;;;;;;;4967632;28;20151;-71
2022/10/18 03:40:11;;;;;;;128.27;17.80;;;;;;;;;;4973551;28;20037;-71
2022/10/18 03:42:37;;;;;;;149.02;21.15;;;;;;;;;;4972900;28;20031;-73
2022/10/18 03:45:04;;;;;;;83.32;16.63;;;;;;;;;;4973206;28;20027;-74
2022/10/18 03:47:30;;;;;;;93.30;17.45;;;;;;;;;;4968299;28;20445;-74
2022/10/18 03:49:56;;;;;;;127.95;18.73;;;;;;;;;;4972098;28;20506;-71
2022/10/18 03:52:22;;;;;;;225.02;19.58;;;;;;;;;;4962958;28;20050;-73
2022/10/18 03:54:48;;;;;;;203.82;18.42;;;;;;;;;;4973225;28;20034;-70
2022/10/18 03:57:14;;;;;;;217.30;20.63;;;;;;;;;;4970557;28;20041;-70
2022/10/18 03:59:40;;;;;;;206.75;19.00;;;;;;;;;;4965578;28;20053;-70
2022/10/18 04:02:06;;;;;;;187.02;17.35;;;;;;;;;;4968277;28;20026;-71
2022/10/18 04:04:32;;;;;;;112.10;16.60;;;;;;;;;;4970707;28;20042;-71
2022/10/18 04:06:58;;;;;;;146.23;18.33;;;;;;;;;;4961192;28;20046;-71
2022/10/18 04:09:24;;;;;;;105.07;14.55;;;;;;;;;;4968270;28;20046;-74
2022/10/18 04:11:50;;;;;;;192.32;17.90;;;;;;;;;;4971054;28;20035;-71
2022/10/18 04:14:17;;;;;;;354.80;20.70;;;;;;;;;;4971332;28;20046;-71
2022/10/18 04:16:43;;;;;;;195.98;20.88;;;;;;;;;;4972724;28;20423;-70
2022/10/18 04:19:09;;;;;;;124.60;17.17;;;;;;;;;;4969254;28;20038;-70
2022/10/18 04:21:35;;;;;;;96.63;14.98;;;;;;;;;;4970683;28;20027;-70
2022/10/18 04:24:01;;;;;;;129.77;16.27;;;;;;;;;;4971072;28;20066;-71
2022/10/18 04:26:27;;;;;;;117.80;15.43;;;;;;;;;;4972702;28;20030;-71
2022/10/18 04:28:53;;;;;;;101.03;14.73;;;;;;;;;;4971745;28;20037;-71
2022/10/18 04:31:19;;;;;;;90.93;14.05;;;;;;;;;;4972315;28;20081;-71
2022/10/18 04:33:45;;;;;;;118.78;15.48;;;;;;;;;;4967909;28;20053;-72
2022/10/18 04:36:11;;;;;;;81.78;14.40;;;;;;;;;;4971105;28;20023;-72
2022/10/18 04:38:37;;;;;;;95.85;14.07;;;;;;;;;;4971183;28;22033;-75
2022/10/18 04:41:03;;;;;;;142.32;17.75;;;;;;;;;;4986192;28;20388;-70
2022/10/18 04:43:29;;;;;;;111.93;12.82;;;;;;;;;;4985256;28;20436;-72
2022/10/18 04:45:55;;;;;;;301.10;22.90;;;;;;;;;;4971562;28;20106;-70
2022/10/18 04:48:21;;;;;;;216.55;15.75;;;;;;;;;;4969668;28;20039;-74
2022/10/18 04:50:48;;;;;;;230.90;15.25;;;;;;;;;;4971187;28;20476;-72
2022/10/18 04:53:15;;;;;;;229.75;16.08;;;;;;;;;;4985367;28;20046;-71
2022/10/18 04:55:50;;;;;;;174.52;15.13;;;;;;;;;;4968526;28;20109;-73
2022/10/18 04:58:17;;;;;;;263.50;14.98;;;;;;;;;;4970981;28;20027;-71
2022/10/18 05:00:43;;;;;;;119.90;11.25;;;;;;;;;;4970240;28;20054;-71
2022/10/18 05:03:10;;;;;;;142.25;12.27;;;;;;;;;;4971215;28;20559;-71
2022/10/18 05:05:37;;;;;;;168.40;12.55;;;;;;;;;;4966729;28;20391;-71
2022/10/18 05:08:03;;;;;;;107.20;10.57;;;;;;;;;;4971864;28;20554;-71
2022/10/18 05:10:29;;;;;;;125.90;11.70;;;;;;;;;;4970097;28;20048;-72
2022/10/18 05:12:55;;;;;;;73.90;9.73;;;;;;;;;;4959864;28;20094;-71
2022/10/18 05:15:21;;;;;;;120.22;12.38;;;;;;;;;;4970310;28;20055;-71
2022/10/18 05:17:47;;;;;;;96.53;12.32;;;;;;;;;;4971240;28;20118;-71
2022/10/18 05:20:13;;;;;;;73.82;10.45;;;;;;;;;;4965219;28;20034;-71
2022/10/18 05:22:39;;;;;;;110.88;10.75;;;;;;;;;;4965770;28;20023;-72
2022/10/18 05:25:05;;;;;;;83.55;11.23;;;;;;;;;;4969464;28;20023;-74
2022/10/18 05:27:32;;;;;;;154.18;10.45;;;;;;;;;;4968991;28;20507;-72
2022/10/18 05:29:58;;;;;;;149.95;10.50;;;;;;;;;;4969933;28;20035;-74
2022/10/18 05:32:24;;;;;;;203.35;10.82;;;;;;;;;;4959027;28;20039;-70
2022/10/18 05:34:50;;;;;;;215.43;10.40;;;;;;;;;;4957108;28;20080;-72
2022/10/18 05:37:16;;;;;;;153.32;12.13;;;;;;;;;;4961879;28;20043;-71
2022/10/18 05:39:42;;;;;;;143.93;10.75;;;;;;;;;;4971436;28;20479;-71
2022/10/18 05:42:08;;;;;;;199.27;9.77;;;;;;;;;;4969335;28;20041;-71
2022/10/18 05:44:34;;;;;;;207.25;10.32;;;;;;;;;;4973965;28;20035;-71
2022/10/18 05:47:00;;;;;;;152.48;8.27;;;;;;;;;;4971809;28;20107;-71
2022/10/18 05:49:26;;;;;;;188.35;12.32;;;;;;;;;;4970945;28;20043;-71
2022/10/18 05:51:52;;;;;;;142.90;10.88;;;;;;;;;;4965326;28;20432;-71
2022/10/18 05:54:19;;;;;;;141.55;11.73;;;;;;;;;;4972382;28;20034;-71
2022/10/18 05:56:46;;;;;;;104.53;10.13;;;;;;;;;;4974134;28;20027;-71
2022/10/18 05:59:12;;;;;;;96.38;8.90;;;;;;;;;;4975016;28;20035;-71
2022/10/18 06:01:38;;;;;;;46.10;8.13;;;;;;;;;;4970686;28;20085;-70
2022/10/18 06:04:04;;;;;;;58.28;8.80;;;;;;;;;;4973944;28;20041;-72
2022/10/18 06:06:30;;;;;;;69.75;9.02;;;;;;;;;;4972584;28;20126;-73
2022/10/18 06:08:56;;;;;;;49.30;8.10;;;;;;;;;;4973497;28;20118;-70
2022/10/18 06:11:23;;;;;;;44.60;7.88;;;;;;;;;;4972838;28;20035;-70
2022/10/18 06:13:50;;;;;;;27.98;8.25;;;;;;;;;;4972646;28;20035;-71
2022/10/18 06:16:20;;;;;;;102.45;10.68;;;;;;;;;;4974318;28;20554;-71
2022/10/18 06:18:50;;;;;;;108.07;11.68;;;;;;;;;;4973763;28;20380;-72
2022/10/18 06:21:17;;;;;;;256.13;12.32;;;;;;;;;;4973943;28;20027;-72
2022/10/18 06:23:43;;;;;;;152.18;10.00;;;;;;;;;;4968675;28;20391;-71
2022/10/18 06:26:10;;;;;;;266.88;10.40;;;;;;;;;;4967581;28;20484;-70
2022/10/18 06:28:37;;;;;;;170.25;9.32;;;;;;;;;;4971902;28;20026;-72
2022/10/18 06:31:03;;;;;;;219.50;9.60;;;;;;;;;;4974049;28;20066;-71
2022/10/18 06:33:34;;;;;;;215.85;9.80;;;;;;;;;;4971159;28;20031;-70
2022/10/18 06:36:01;;;;;;;103.35;8.73;;;;;;;;;;4973880;28;20058;-71
2022/10/18 06:38:28;;;;;;;108.28;7.93;;;;;;;;;;4971280;28;20026;-71
2022/10/18 06:40:54;;;;;;;48.72;7.10;;;;;;;;;;4974319;28;20039;-71
2022/10/18 06:43:20;;;;;;;62.08;7.68;;;;;;;;;;4963489;28;20034;-71
2022/10/18 06:45:46;;;;;;;54.03;7.55;;;;;;;;;;4973920;28;20035;-71
2022/10/18 06:48:12;;;;;;;57.60;7.50;;;;;;;;;;4971737;28;20030;-71
2022/10/18 06:50:38;;;;;;;45.20;8.25;;;;;;;;;;4973580;28;20035;-72
2022/10/18 06:53:07;;;;;;;99.07;8.48;;;;;;;;;;4971865;28;20035;-75
2022/10/18 06:55:33;;;;;;;47.83;7.22;;;;;;;;;;4973999;28;20031;-71
2022/10/18 06:57:59;;;;;;;34.35;7.22;;;;;;;;;;4969907;28;20395;-72
2022/10/18 07:00:25;;;;;;;39.97;7.70;;;;;;;;;;4969344;28;20410;-74
2022/10/18 07:02:51;;;;;;;36.22;6.53;;;;;;;;;;4970207;28;20030;-71
2022/10/18 07:05:18;;;;;;;89.85;7.63;;;;;;;;;;4971679;28;20077;-71
2022/10/18 07:07:44;;;;;;;66.15;7.13;;;;;;;;;;4970967;28;20019;-71
2022/10/18 07:10:10;;;;;;;45.75;7.10;;;;;;;;;;4971426;28;20042;-73
2022/10/18 07:12:36;;;;;;;71.75;6.57;;;;;;;;;;4971993;28;20022;-71
2022/10/18 07:15:02;;;;;;;74.30;7.80;;;;;;;;;;4971789;28;20042;-71
2022/10/18 07:17:28;;;;;;;58.63;7.13;;;;;;;;;;4971836;28;20090;-73
2022/10/18 07:19:54;;;;;;;34.47;6.63;;;;;;;;;;4962599;28;20057;-70
2022/10/18 07:22:20;;;;;;;55.47;7.63;;;;;;;;;;4959984;28;20070;-70
2022/10/18 07:24:46;;;;;;;36.55;6.40;;;;;;;;;;4957167;28;20038;-71
2022/10/18 07:27:12;;;;;;;25.23;6.32;;;;;;;;;;4951327;28;20490;-70
2022/10/18 07:29:39;;;;;;;17.05;7.03;;;;;;;;;;4950694;28;20050;-76
2022/10/18 07:32:05;;;;;;;28.67;14.55;;;;;;;;;;4952673;28;20155;-73
2022/10/18 07:34:31;;;;;;;17.80;8.13;;;;;;;;;;4969663;28;20085;-71
2022/10/18 07:36:57;;;;;;;23.80;8.57;;;;;;;;;;4961402;28;20027;-72
2022/10/18 07:39:23;;;;;;;11.13;7.32;;;;;;;;;;4972488;28;20084;-74
2022/10/18 07:41:49;;;;;;;13.38;7.03;;;;;;;;;;4971058;28;20038;-72
2022/10/18 07:44:16;;;;;;;10.50;7.00;;;;;;;;;;4969731;28;20452;-72
2022/10/18 07:46:42;;;;;;;11.55;8.20;;;;;;;;;;4972857;28;20573;-71
2022/10/18 07:49:08;;;;;;;11.43;8.00;;;;;;;;;;4970315;28;20027;-71
2022/10/18 07:51:34;;;;;;;9.23;6.38;;;;;;;;;;4970865;28;20043;-72
2022/10/18 07:54:01;;;;;;;12.75;6.78;;;;;;;;;;4972454;28;20035;-71
2022/10/18 07:56:27;;;;;;;14.65;7.07;;;;;;;;;;4968510;28;20042;-71
2022/10/18 07:58:54;;;;;;;11.85;6.88;;;;;;;;;;4972636;28;20034;-70
2022/10/18 08:01:21;;;;;;;10.85;5.43;;;;;;;;;;4971301;28;20027;-70
2022/10/18 08:03:47;;;;;;;19.67;5.93;;;;;;;;;;4970510;28;20088;-71
2022/10/18 08:06:15;;;;;;;20.02;6.97;;;;;;;;;;4967710;28;20027;-72
2022/10/18 08:08:41;;;;;;;15.15;6.18;;;;;;;;;;4967505;28;20375;-72
2022/10/18 08:11:09;;;;;;;18.20;6.38;;;;;;;;;;4968373;28;20039;-73
2022/10/18 08:13:35;;;;;;;12.05;6.38;;;;;;;;;;4970580;28;20119;-70
2022/10/18 08:16:03;;;;;;;18.15;6.95;;;;;;;;;;4959016;28;20084;-70
2022/10/18 08:18:29;;;;;;;20.40;6.95;;;;;;;;;;4967723;28;20027;-70
2022/10/18 08:20:55;;;;;;;15.98;6.97;;;;;;;;;;4972353;28;20035;-71
2022/10/18 08:23:21;;;;;;;20.40;6.38;;;;;;;;;;4968103;28;20039;-73
2022/10/18 08:25:47;;;;;;;15.93;7.40;;;;;;;;;;4971315;28;20019;-70
2022/10/18 08:28:13;;;;;;;16.80;7.18;;;;;;;;;;4972595;28;20026;-71
2022/10/18 08:30:39;;;;;;;19.98;7.22;;;;;;;;;;4971884;28;20043;-70
2022/10/18 08:33:05;;;;;;;19.30;6.13;;;;;;;;;;4972332;28;20070;-76
2022/10/18 08:35:31;;;;;;;18.75;5.30;;;;;;;;;;4971685;28;20039;-72
2022/10/18 08:37:58;;;;;;;24.90;5.65;;;;;;;;;;4972000;28;20027;-71
2022/10/18 08:40:26;;;;;;;22.27;4.82;;;;;;;;;;4959493;28;20039;-72
2022/10/18 08:43:05;;;;;;;27.73;5.30;;;;;;;;;;4964142;28;20169;-72
2022/10/18 08:45:34;;;;;;;23.05;4.82;;;;;;;;;;4968854;28;20129;-73
2022/10/18 08:48:00;;;;;;;19.95;4.50;;;;;;;;;;4970347;28;20027;-71
2022/10/18 08:50:33;;;;;;;147.27;85.45;;;;;;;;;;4969843;28;20451;-72
2022/10/18 08:53:13;;;;;;;16.42;6.20;;;;;;;;;;4968108;28;20039;-73
2022/10/18 08:55:47;;;;;;;15.02;3.42;;;;;;;;;;4959628;28;20026;-71
2022/10/18 08:58:16;;;;;;;13.77;2.33;;;;;;;;;;4969607;28;20031;-71
2022/10/18 09:00:45;;;;;;;18.88;2.33;;;;;;;;;;4968135;28;20390;-72
2022/10/18 09:03:30;;;;;;;13.25;2.88;;;;;;;;;;4979465;28;20046;-72
2022/10/18 09:06:03;;;;;;;22.05;3.60;;;;;;;;;;4970808;28;20038;-71
2022/10/18 09:08:43;;;;;;;12.32;3.50;;;;;;;;;;4971940;28;20069;-75
2022/10/18 09:11:17;;;;;;;18.00;4.20;;;;;;;;;;4971042;28;20383;-73
2022/10/18 09:13:43;;;;;;;19.35;4.10;;;;;;;;;;4968394;28;20244;-73
2022/10/18 09:16:19;;;;;;;19.17;2.72;;;;;;;;;;4969558;28;20062;-72
2022/10/18 09:18:51;;;;;;;18.27;2.55;;;;;;;;;;4962793;28;20065;-71
2022/10/18 09:21:24;;;;;;;20.42;5.05;;;;;;;;;;4983889;28;20452;-72
2022/10/18 09:23:50;;;;;;;;;;;;;;;;;;4966114;28;20035;-72
2022/10/18 09:26:18;;;;;;;15.13;2.78;;;;;;;;;;4970980;28;20024;-71
2022/10/18 09:29:03;;;;;;;17.98;3.25;;;;;;;;;;4970678;28;20097;-71
2022/10/18 09:31:49;;;;;;;38.25;4.38;;;;;;;;;;4975176;28;20081;-72
2022/10/18 09:34:42;;;;;;;16.55;3.10;;;;;;;;;;4969721;28;20050;-72
2022/10/18 09:37:12;;;;;;;25.30;3.15;;;;;;;;;;4971911;28;20065;-71
2022/10/18 09:39:39;;;;;;;21.83;3.67;;;;;;;;;;4969899;28;20372;-73
2022/10/18 09:42:11;;;;;;;22.13;2.55;;;;;;;;;;4973352;28;20046;-72
2022/10/18 09:45:09;;;;;;;22.58;2.70;;;;;;;;;;4966227;28;20583;-74
2022/10/18 09:47:39;;;;;;;17.77;2.90;;;;;;;;;;4976608;28;20070;-77
2022/10/18 09:50:27;;;;;;;15.07;2.72;;;;;;;;;;4966384;28;20503;-71
2022/10/18 09:53:06;;;;;;;17.05;4.38;;;;;;;;;;4967280;28;20030;-72
2022/10/18 09:55:35;;;;;;;19.15;4.75;;;;;;;;;;4971914;28;20038;-73
2022/10/18 09:58:02;;;;;;;17.45;2.90;;;;;;;;;;4966062;28;20023;-74
2022/10/18 10:00:42;;;;;;;18.90;2.47;;;;;;;;;;4956520;28;20225;-73
2022/10/18 10:03:14;;;;;;;15.60;2.70;;;;;;;;;;4970087;28;20033;-72
2022/10/18 10:05:41;;;;;;;26.85;2.67;;;;;;;;;;4963881;28;20420;-73
2022/10/18 10:08:07;;;;;;;12.07;2.22;;;;;;;;;;4986676;28;20024;-72
2022/10/18 10:10:33;;;;;;;9.32;2.33;;;;;;;;;;4974315;28;20121;-72
2022/10/18 10:13:14;;;;;;;12.00;2.42;;;;;;;;;;4965149;28;20031;-74
2022/10/18 10:15:44;;;;;;;22.42;2.90;;;;;;;;;;4982317;28;20061;-73
2022/10/18 10:18:21;;;;;;;21.40;2.17;;;;;;;;;;4980549;28;20113;-74
2022/10/18 10:20:49;;;;;;;14.57;1.90;;;;;;;;;;4973917;28;20034;-73
2022/10/18 10:23:21;;;;;;;19.88;2.85;;;;;;;;;;4966539;28;20098;-74
2022/10/18 10:25:51;;;;;;;8.38;1.65;;;;;;;;;;4974747;28;20089;-73
2022/10/18 10:28:19;;;;;;;11.27;1.73;;;;;;;;;;4961553;28;20030;-74
2022/10/18 10:30:45;;;;;;;15.80;2.65;;;;;;;;;;4973081;28;20041;-74
2022/10/18 10:33:32;;;;;;;20.60;2.50;;;;;;;;;;4967932;28;20055;-74
2022/10/18 10:35:59;;;;;;;11.30;1.85;;;;;;;;;;4967002;28;20023;-73
2022/10/18 10:38:27;;;;;;;16.23;2.28;;;;;;;;;;4972616;28;20118;-73
2022/10/18 10:40:53;;;;;;;12.70;1.83;;;;;;;;;;4973502;28;20097;-75
2022/10/18 10:43:22;;;;;;;10.80;1.83;;;;;;;;;;4967224;28;20030;-73
2022/10/18 10:45:58;;;;;;;11.10;1.48;;;;;;;;;;4968111;28;20031;-74
2022/10/18 10:48:25;;;;;;;12.32;2.28;;;;;;;;;;4965036;28;20028;-70
2022/10/18 10:51:10;;;;;;;21.95;10.55;;;;;;;;;;4968973;28;20422;-76
2022/10/18 10:54:03;;;;;;;7.53;1.35;;;;;;;;;;4989626;28;20046;-75
2022/10/18 10:56:29;;;;;;;;;;;;;;;;;;4966589;28;20105;-76
2022/10/18 10:58:57;;;;;;;14.90;1.58;;;;;;;;;;4974373;28;19914;-74
2022/10/18 11:01:28;;;;;;;12.10;1.67;;;;;;;;;;4966609;28;20526;-73
2022/10/18 11:03:55;;;;;;;11.15;2.00;;;;;;;;;;4966508;28;20039;-72
2022/10/18 11:06:40;;;;;;;12.30;1.85;;;;;;;;;;4964577;28;20047;-72
2022/10/18 11:09:11;;;;;;;8.73;1.60;;;;;;;;;;4970929;28;20484;-72
2022/10/18 11:11:41;;;;;;;14.48;3.13;;;;;;;;;;4970420;28;20070;-72
2022/10/18 11:14:16;;;;;;;8.55;1.83;;;;;;;;;;4971188;28;20030;-72
2022/10/18 11:16:49;;;;;;;9.38;1.58;;;;;;;;;;4963843;28;20086;-72
2022/10/18 11:19:36;;;;;;;8.48;1.75;;;;;;;;;;4970289;28;20030;-73
2022/10/18 11:22:04;;;;;;;10.15;1.85;;;;;;;;;;4968932;28;21606;-73
2022/10/18 11:24:30;;;;;;;11.55;1.88;;;;;;;;;;4959998;28;20045;-73
2022/10/18 11:27:05;;;;;;;12.00;2.17;;;;;;;;;;4968284;28;20364;-72
2022/10/18 11:29:31;;;;;;;15.02;5.82;;;;;;;;;;4972658;28;20046;-72
2022/10/18 11:32:17;;;;;;;10.93;2.13;;;;;;;;;;4962335;28;20100;-73
2022/10/18 11:35:01;;;;;;;12.35;1.80;;;;;;;;;;4966068;28;20030;-73
2022/10/18 11:37:30;;;;;;;15.90;2.28;;;;;;;;;;4965450;28;20014;-75
2022/10/18 11:40:11;;;;;;;15.32;2.05;;;;;;;;;;4966972;28;20663;-74
2022/10/18 11:42:49;;;;;;;13.88;1.83;;;;;;;;;;4969998;28;20035;-74
2022/10/18 11:45:34;;;;;;;14.13;2.22;;;;;;;;;;4966333;28;20027;-71
2022/10/18 11:48:19;;;;;;;17.20;1.88;;;;;;;;;;4965844;28;20115;-74
2022/10/18 11:50:48;;;;;;;15.57;2.28;;;;;;;;;;4966362;28;20077;-74
2022/10/18 11:53:43;;;;;;;15.60;1.60;;;;;;;;;;4969870;28;20054;-72
2022/10/18 11:56:12;;;;;;;9.98;2.38;;;;;;;;;;4934661;28;20064;-76
2022/10/18 11:58:56;;;;;;;11.85;1.70;;;;;;;;;;4970429;28;20470;-72
2022/10/18 12:01:55;;;;;;;44.03;20.73;;;;;;;;;;4969935;28;20121;-73
2022/10/18 12:04:24;;;;;;;13.13;2.50;;;;;;;;;;4948091;28;20432;-71
2022/10/18 12:06:51;;;;;;;12.90;2.13;;;;;;;;;;4970363;28;20109;-72
2022/10/18 12:09:28;;;;;;;11.10;1.90;;;;;;;;;;4962665;28;20062;-71
2022/10/18 12:12:00;;;;;;;15.52;2.17;;;;;;;;;;4962479;28;20118;-71
2022/10/18 12:14:26;;;;;;;;;;;;;;;;;;4960266;28;20436;-72
2022/10/18 12:16:55;;;;;;;15.90;2.33;;;;;;;;;;4970045;28;19968;-72
2022/10/18 12:19:23;;;;;;;16.65;2.55;;;;;;;;;;4963237;28;20107;-71
2022/10/18 12:21:49;;;;;;;9.55;1.80;;;;;;;;;;4972651;28;20113;-72
2022/10/18 12:24:19;;;;;;;15.07;2.53;;;;;;;;;;4953821;28;20050;-71
2022/10/18 12:26:47;;;;;;;15.50;2.30;;;;;;;;;;4971316;28;20034;-72
2022/10/18 12:29:13;;;;;;;13.38;1.67;;;;;;;;;;4967691;28;20118;-72
2022/10/18 12:31:39;;;;;;;15.07;2.58;;;;;;;;;;4970849;28;20034;-71
2022/10/18 12:34:20;;;;;;;14.88;2.50;;;;;;;;;;4974436;28;20077;-76
2022/10/18 12:36:56;;;;;;;16.33;3.38;;;;;;;;;;4979026;28;20042;-72
2022/10/18 12:39:25;;;;;;;9.18;1.67;;;;;;;;;;4964391;28;20117;-75
2022/10/18 12:41:53;;;;;;;8.00;1.60;;;;;;;;;;4971436;28;20035;-71
2022/10/18 12:44:21;;;;;;;9.30;2.03;;;;;;;;;;4966577;28;20055;-72
2022/10/18 12:46:51;;;;;;;24.05;7.43;;;;;;;;;;4960792;28;20530;-70
2022/10/18 12:49:44;;;;;;;9.25;2.53;;;;;;;;;;4971259;28;20019;-70
2022/10/18 12:52:21;;;;;;;17.85;1.95;;;;;;;;;;4960091;28;20053;-72
2022/10/18 12:55:06;;;;;;;12.60;1.80;;;;;;;;;;4966984;28;20089;-70
2022/10/18 12:57:58;;;;;;;10.18;1.73;;;;;;;;;;4965658;28;20097;-71
2022/10/18 13:00:30;;;;;;;12.40;1.58;;;;;;;;;;4964185;28;20046;-71
2022/10/18 13:02:56;;;;;;;;;;;;;;;;;;4965217;28;20027;-71
2022/10/18 13:05:41;;;;;;;7.70;1.45;;;;;;;;;;4975669;28;19952;-71
2022/10/18 13:08:25;;;;;;;13.88;2.58;;;;;;;;;;4970257;28;20038;-74
2022/10/18 13:11:11;;;;;;;9.48;1.23;;;;;;;;;;4972448;28;20085;-74
2022/10/18 13:13:56;;;;;;;10.43;1.52;;;;;;;;;;4972885;28;20030;-73
2022/10/18 13:16:22;;;;;;;9.52;1.48;;;;;;;;;;4972062;28;20134;-71
2022/10/18 13:19:13;;;;;;;13.65;1.70;;;;;;;;;;4976375;28;20023;-72
2022/10/18 13:21:44;;;;;;;9.68;1.80;;;;;;;;;;4973714;28;20050;-72
2022/10/18 13:24:19;;;;;;;9.00;1.70;;;;;;;;;;4960689;28;20524;-74
2022/10/18 13:26:50;;;;;;;14.55;2.25;;;;;;;;;;4956319;28;20031;-72
2022/10/18 13:29:35;;;;;;;65.85;37.80;;;;;;;;;;4968107;28;20035;-70
2022/10/18 13:32:17;;;;;;;10.35;2.50;;;;;;;;;;4973867;28;20034;-74
2022/10/18 13:34:43;;;;;;;13.00;1.80;;;;;;;;;;4966591;28;20031;-72
2022/10/18 13:37:09;;;;;;;9.10;1.70;;;;;;;;;;4971371;28;20030;-69
2022/10/18 13:39:36;;;;;;;9.93;1.58;;;;;;;;;;4962528;28;20031;-69
2022/10/18 13:42:02;;;;;;;11.75;1.45;;;;;;;;;;4970481;28;20080;-75
2022/10/18 13:44:48;;;;;;;8.05;1.80;;;;;;;;;;4971583;28;20030;-70
2022/10/18 13:47:33;;;;;;;10.05;1.90;;;;;;;;;;4970016;28;20337;-69
2022/10/18 13:50:08;;;;;;;7.75;1.23;;;;;;;;;;4975406;28;20030;-70
2022/10/18 13:52:43;;;;;;;10.73;1.88;;;;;;;;;;4971222;28;20039;-70
2022/10/18 13:55:15;;;;;;;7.82;2.47;;;;;;;;;;4969929;28;20034;-69
2022/10/18 13:57:50;;;;;;;11.77;1.70;;;;;;;;;;4970947;28;20026;-69
2022/10/18 14:00:35;;;;;;;10.25;2.13;;;;;;;;;;4970977;28;20042;-69
2022/10/18 14:03:20;;;;;;;12.77;2.38;;;;;;;;;;4970733;28;20038;-70
2022/10/18 14:06:18;;;;;;;6.20;1.40;;;;;;;;;;4968467;28;20029;-70
2022/10/18 14:08:53;;;;;;;14.88;2.17;;;;;;;;;;4975925;28;20350;-70
2022/10/18 14:11:32;;;;;;;10.77;1.50;;;;;;;;;;4975145;28;20375;-69
2022/10/18 14:14:19;;;;;;;10.98;1.55;;;;;;;;;;4975104;28;20058;-69
2022/10/18 14:16:54;;;;;;;9.20;2.05;;;;;;;;;;4965636;28;20043;-70
2022/10/18 14:19:41;;;;;;;14.25;1.98;;;;;;;;;;4984866;28;20061;-75
2022/10/18 14:22:07;;;;;;;7.65;1.40;;;;;;;;;;4974811;28;20089;-69
2022/10/18 14:24:34;;;;;;;10.57;1.73;;;;;;;;;;4974579;28;20356;-68
2022/10/18 14:27:11;;;;;;;8.43;1.52;;;;;;;;;;4965286;28;20495;-69
2022/10/18 14:29:38;;;;;;;9.18;1.48;;;;;;;;;;4972737;28;20133;-69
2022/10/18 14:32:07;;;;;;;10.60;2.10;;;;;;;;;;4974963;28;20043;-71
2022/10/18 14:34:34;;;;;;;11.68;1.50;;;;;;;;;;4979612;28;20050;-67
2022/10/18 14:37:00;;;;;;;14.18;1.67;;;;;;;;;;4964669;28;20286;-70
2022/10/18 14:39:29;;;;;;;12.73;1.88;;;;;;;;;;4961363;28;20397;-74
2022/10/18 14:41:56;;;;;;;10.05;2.10;;;;;;;;;;4963445;28;20026;-71